Time;durP1;ratioP1;P1;durP2;ratioP2;P2;SDS_P1;SDS_P2;PMS_P1;PMS_P2;Temp;Humidity;BMP_temperature;BMP_pressure;BME280_temperature;BME280_humidity;BME280_pressure;Samples;Min_cycle;Max_cycle;Signal;HPM_P1;HPM_P2
2023/08/23 00:01:35;;;;;;;9.10;4.07;;;19.70;1.00;;;;;;5080747;28;20744;-71
2023/08/23 00:04:25;;;;;;;5.93;3.60;;;19.80;1.00;;;;;;5082924;28;20227;-70
2023/08/23 00:07:14;;;;;;;7.57;4.00;;;19.70;1.00;;;;;;5098455;27;20222;-71
2023/08/23 00:10:03;;;;;;;7.82;3.67;;;19.80;99.90;;;;;;5079504;28;20223;-69
2023/08/23 00:12:56;;;;;;;9.63;4.05;;;19.80;99.90;;;;;;5080788;28;20234;-69
2023/08/23 00:15:45;;;;;;;9.43;4.30;;;19.70;99.90;;;;;;5095007;28;20223;-69
2023/08/23 00:18:35;;;;;;;9.65;4.30;;;19.70;99.90;;;;;;5081474;28;20246;-69
2023/08/23 00:21:24;;;;;;;5.18;4.10;;;19.80;1.00;;;;;;5094592;28;20235;-69
2023/08/23 00:24:13;;;;;;;9.70;4.43;;;19.90;99.90;;;;;;5093125;28;20231;-69
2023/08/23 00:27:01;;;;;;;5.97;3.80;;;19.80;1.00;;;;;;5096041;28;20219;-69
2023/08/23 00:29:50;;;;;;;8.63;4.10;;;19.80;1.00;;;;;;5083549;28;20218;-69
2023/08/23 00:32:39;;;;;;;8.02;4.50;;;19.80;1.00;;;;;;5093807;28;20331;-69
2023/08/23 00:35:29;;;;;;;8.48;4.25;;;19.80;1.00;;;;;;5078717;28;20794;-69
2023/08/23 00:38:20;;;;;;;6.50;4.00;;;19.80;1.00;;;;;;5078495;28;20227;-70
2023/08/23 00:41:09;;;;;;;5.13;3.50;;;19.80;99.90;;;;;;5081125;28;20221;-69
2023/08/23 00:43:58;;;;;;;8.57;4.07;;;19.70;99.90;;;;;;5076279;28;20331;-71
2023/08/23 00:46:47;;;;;;;6.78;3.95;;;19.80;1.00;;;;;;5080789;28;20215;-70
2023/08/23 00:49:36;;;;;;;7.35;3.78;;;19.80;99.90;;;;;;5087923;27;21088;-70
2023/08/23 00:52:28;;;;;;;8.13;3.92;;;19.70;99.90;;;;;;5079135;28;20643;-69
2023/08/23 00:55:28;;;;;;;4.88;3.53;;;19.70;99.90;;;;;;5081353;28;20810;-69
2023/08/23 00:58:17;;;;;;;5.20;3.33;;;19.70;99.90;;;;;;5081595;28;20701;-69
2023/08/23 01:01:05;;;;;;;8.18;3.90;;;19.80;51.40;;;;;;5074085;28;20246;-69
2023/08/23 01:03:58;;;;;;;6.35;3.72;;;19.70;1.00;;;;;;5076991;28;21034;-69
2023/08/23 01:06:55;;;;;;;5.53;3.90;;;19.80;1.00;;;;;;5077259;28;21229;-69
2023/08/23 01:09:52;;;;;;;9.10;4.15;;;19.80;1.00;;;;;;5083948;28;20296;-68
2023/08/23 01:12:49;;;;;;;6.30;4.10;;;19.70;1.00;;;;;;5073980;28;20222;-69
2023/08/23 01:15:39;;;;;;;6.50;4.10;;;19.70;1.00;;;;;;5075278;28;20222;-70
2023/08/23 01:18:28;;;;;;;7.50;4.28;;;19.70;99.90;;;;;;5073273;28;20227;-70
2023/08/23 01:21:23;;;;;;;7.95;4.15;;;19.70;99.90;;;;;;5074841;28;20216;-70
2023/08/23 01:24:15;;;;;;;6.68;4.10;;;19.80;1.00;;;;;;5078533;28;21489;-69
2023/08/23 01:27:04;;;;;;;7.68;3.67;;;19.80;1.00;;;;;;5078213;28;20218;-71
2023/08/23 01:29:52;;;;;;;7.28;4.13;;;19.70;99.90;;;;;;5073312;28;21083;-70
2023/08/23 01:32:47;;;;;;;7.47;4.10;;;19.60;75.00;;;;;;5068086;28;20594;-71
2023/08/23 01:35:43;;;;;;;6.07;4.28;;;19.60;99.90;;;;;;5086647;28;20228;-70
2023/08/23 01:38:35;;;;;;;6.43;4.60;;;19.50;1.00;;;;;;5085499;28;20701;-71
2023/08/23 01:41:26;;;;;;;5.28;3.63;;;19.50;99.90;;;;;;5077637;28;21089;-71
2023/08/23 01:44:15;;;;;;;7.25;4.60;;;19.50;1.00;;;;;;5078102;28;20330;-70
2023/08/23 01:47:04;;;;;;;6.18;3.92;;;19.60;1.00;;;;;;5084405;28;20227;-70
2023/08/23 01:49:54;;;;;;;6.75;4.40;;;19.60;1.00;;;;;;5074380;28;20525;-68
2023/08/23 01:52:43;;;;;;;8.95;4.97;;;19.60;1.00;;;;;;5079641;28;20313;-70
2023/08/23 01:55:33;;;;;;;7.47;4.00;;;19.60;1.00;;;;;;5088190;28;20223;-69
2023/08/23 01:58:24;;;;;;;8.68;4.25;;;19.50;96.80;;;;;;5076666;28;20231;-70
2023/08/23 02:01:13;;;;;;;8.63;4.90;;;19.50;99.90;;;;;;5069337;28;20231;-68
2023/08/23 02:04:02;;;;;;;7.32;4.05;;;19.50;1.00;;;;;;5099178;28;20218;-67
2023/08/23 02:06:51;;;;;;;7.35;4.85;;;19.40;99.90;;;;;;5087913;28;20241;-69
2023/08/23 02:09:40;;;;;;;7.30;4.90;;;19.50;1.00;;;;;;5079150;28;20306;-68
2023/08/23 02:12:29;;;;;;;10.27;5.13;;;19.50;1.00;;;;;;5094419;28;20352;-69
2023/08/23 02:15:19;;;;;;;6.32;5.07;;;19.50;1.00;;;;;;5083110;28;20218;-69
2023/08/23 02:18:08;;;;;;;8.80;4.97;;;19.50;1.00;;;;;;5076811;28;20222;-69
2023/08/23 02:20:59;;;;;;;13.43;5.80;;;19.50;1.00;;;;;;5061085;28;20345;-69
2023/08/23 02:23:48;;;;;;;9.82;5.18;;;19.50;1.00;;;;;;5074608;28;20230;-69
2023/08/23 02:26:37;;;;;;;7.00;5.45;;;19.30;1.00;;;;;;5092357;28;20222;-69
2023/08/23 02:29:27;;;;;;;9.43;5.05;;;19.50;17.70;;;;;;5080890;28;20266;-70
2023/08/23 02:32:17;;;;;;;6.65;4.30;;;19.40;1.00;;;;;;5080253;28;20258;-69
2023/08/23 02:35:07;;;;;;;8.70;4.30;;;19.40;1.00;;;;;;5078244;28;20227;-68
2023/08/23 02:37:57;;;;;;;7.47;4.72;;;19.40;99.90;;;;;;5073336;28;20230;-70
2023/08/23 02:40:46;;;;;;;8.10;4.72;;;19.50;1.00;;;;;;5079217;28;20235;-70
2023/08/23 02:43:35;;;;;;;6.50;4.65;;;19.30;99.90;;;;;;5074822;28;20920;-69
2023/08/23 02:46:24;;;;;;;8.80;5.55;;;19.40;1.00;;;;;;5073913;28;20279;-70
2023/08/23 02:49:14;;;;;;;7.20;4.38;;;19.30;1.00;;;;;;5081647;28;20247;-71
2023/08/23 02:52:05;;;;;;;7.13;4.30;;;19.30;99.90;;;;;;5070968;28;20219;-70
2023/08/23 02:54:53;;;;;;;7.22;4.38;;;19.40;99.90;;;;;;5077709;28;20385;-70
2023/08/23 02:57:42;;;;;;;7.93;4.18;;;19.30;99.90;;;;;;5092228;28;20459;-69
2023/08/23 03:00:31;;;;;;;8.63;5.10;;;19.20;99.90;;;;;;5091116;28;20220;-69
2023/08/23 03:03:20;;;;;;;9.85;4.68;;;19.30;1.00;;;;;;5082968;28;20234;-71
2023/08/23 03:06:10;;;;;;;11.43;5.22;;;19.20;99.90;;;;;;5094334;28;20271;-70
2023/08/23 03:08:59;;;;;;;6.30;4.82;;;19.10;99.90;;;;;;5068549;28;20224;-71
2023/08/23 03:11:48;;;;;;;9.30;5.43;;;19.20;1.00;;;;;;5101076;28;20234;-70
2023/08/23 03:14:37;;;;;;;8.15;5.07;;;19.10;1.00;;;;;;5097070;28;20223;-70
2023/08/23 03:17:27;;;;;;;8.43;5.75;;;19.10;1.00;;;;;;5088201;28;20234;-71
2023/08/23 03:20:16;;;;;;;6.88;5.45;;;19.20;1.00;;;;;;5099755;28;20275;-69
2023/08/23 03:23:06;;;;;;;9.90;5.90;;;19.20;1.00;;;;;;5079543;28;20318;-70
2023/08/23 03:25:55;;;;;;;10.45;6.05;;;19.10;1.00;;;;;;5080109;28;20305;-71
2023/08/23 03:28:44;;;;;;;10.75;6.57;;;19.20;32.40;;;;;;5084784;28;20226;-70
2023/08/23 03:31:33;;;;;;;14.63;8.13;;;19.20;1.00;;;;;;5078053;28;20220;-71
2023/08/23 03:34:24;;;;;;;15.50;7.70;;;19.20;1.00;;;;;;5083034;28;20227;-71
2023/08/23 03:37:14;;;;;;;12.60;8.00;;;19.10;1.00;;;;;;5069876;28;20236;-70
2023/08/23 03:40:06;;;;;;;15.00;8.88;;;19.10;1.00;;;;;;5065107;28;20246;-70
2023/08/23 03:42:55;;;;;;;13.43;8.57;;;19.10;1.00;;;;;;5078246;28;20276;-70
2023/08/23 03:45:47;;;;;;;13.52;9.13;;;19.10;99.90;;;;;;5070893;28;20336;-69
2023/08/23 03:48:36;;;;;;;13.38;9.52;;;19.10;99.90;;;;;;5088822;28;20239;-69
2023/08/23 03:51:25;;;;;;;18.00;12.88;;;19.10;99.90;;;;;;5074439;28;20372;-69
2023/08/23 03:54:18;;;;;;;19.27;13.05;;;19.20;99.90;;;;;;5076555;28;20841;-68
2023/08/23 03:57:08;;;;;;;18.63;13.57;;;19.20;73.90;;;;;;5094846;28;20211;-67
2023/08/23 03:59:57;;;;;;;19.25;14.15;;;19.30;99.90;;;;;;5081257;28;20703;-69
2023/08/23 04:02:46;;;;;;;23.05;15.18;;;19.20;63.10;;;;;;5078757;28;20274;-67
2023/08/23 04:05:40;;;;;;;19.55;15.45;;;19.20;25.50;;;;;;5081103;28;20243;-69
2023/08/23 04:08:29;;;;;;;23.48;16.83;;;19.20;99.90;;;;;;5080969;28;20878;-70
2023/08/23 04:11:18;;;;;;;21.85;16.80;;;19.10;67.00;;;;;;5078280;28;20233;-69
2023/08/23 04:14:09;;;;;;;22.02;16.25;;;19.10;68.10;;;;;;5078688;28;20219;-70
2023/08/23 04:16:59;;;;;;;22.83;16.50;;;19.10;99.90;;;;;;5085149;28;20255;-71
2023/08/23 04:19:48;;;;;;;21.25;16.27;;;19.20;99.90;;;;;;5076736;28;20312;-71
2023/08/23 04:22:37;;;;;;;22.38;15.55;;;19.30;99.90;;;;;;5082849;28;20796;-70
2023/08/23 04:25:27;;;;;;;22.92;15.30;;;19.20;25.00;;;;;;5084155;28;20230;-69
2023/08/23 04:28:16;;;;;;;20.08;14.95;;;19.30;99.90;;;;;;5080246;28;20999;-69
2023/08/23 04:31:06;;;;;;;24.33;15.48;;;19.30;1.00;;;;;;5094058;27;20764;-68
2023/08/23 04:34:08;;;;;;;19.80;15.02;;;19.40;1.00;;;;;;5092568;28;20226;-71
2023/08/23 04:36:57;;;;;;;18.92;14.48;;;19.50;5.90;;;;;;5074692;28;20221;-70
2023/08/23 04:39:48;;;;;;;18.67;14.15;;;19.50;1.00;;;;;;5079727;28;20530;-68
2023/08/23 04:42:38;;;;;;;18.73;13.80;;;19.60;1.00;;;;;;5091592;27;20223;-69
2023/08/23 04:45:27;;;;;;;18.10;12.68;;;19.60;1.00;;;;;;5080453;28;20215;-70
2023/08/23 04:48:18;;;;;;;17.63;13.55;;;19.60;4.40;;;;;;5079944;28;20222;-70
2023/08/23 04:51:08;;;;;;;18.30;13.13;;;19.60;99.90;;;;;;5080974;28;20269;-71
2023/08/23 04:53:58;;;;;;;21.20;13.50;;;19.70;1.00;;;;;;5059464;28;20226;-71
2023/08/23 04:56:47;;;;;;;17.67;13.15;;;19.70;1.00;;;;;;5067644;28;20231;-69
2023/08/23 04:59:36;;;;;;;18.65;13.00;;;19.80;99.90;;;;;;5075506;28;20303;-70
2023/08/23 05:02:28;;;;;;;15.48;11.73;;;19.90;99.90;;;;;;5076045;28;20313;-70
2023/08/23 05:05:19;;;;;;;18.80;12.05;;;20.00;1.00;;;;;;5076742;28;20266;-70
2023/08/23 05:08:08;;;;;;;14.68;11.27;;;20.10;1.00;;;;;;5075260;27;20226;-69
2023/08/23 05:10:57;;;;;;;15.93;10.05;;;20.10;1.00;;;;;;5076110;28;20227;-71
2023/08/23 05:13:46;;;;;;;13.77;9.95;;;20.20;58.50;;;;;;5095726;28;20328;-71
2023/08/23 05:16:36;;;;;;;14.98;10.50;;;20.30;1.00;;;;;;5081695;28;20438;-69
2023/08/23 05:19:28;;;;;;;14.63;9.82;;;20.30;45.90;;;;;;5095435;28;20223;-70
2023/08/23 05:22:19;;;;;;;16.15;9.40;;;20.50;1.00;;;;;;5079988;28;20306;-69
2023/08/23 05:25:09;;;;;;;12.70;8.57;;;20.40;99.90;;;;;;5087503;28;20251;-70
2023/08/23 05:27:58;;;;;;;12.75;8.85;;;20.50;32.70;;;;;;5076285;28;20234;-70
2023/08/23 05:30:47;;;;;;;11.52;8.68;;;20.60;1.00;;;;;;5090636;28;20235;-70
2023/08/23 05:33:39;;;;;;;16.25;9.18;;;20.60;1.00;;;;;;5078124;28;20219;-70
2023/08/23 05:36:30;;;;;;;13.77;8.15;;;22.00;1.00;;;;;;5077754;28;21149;-71
2023/08/23 05:39:20;;;;;;;10.70;7.45;;;23.40;99.90;;;;;;5076297;28;20218;-70
2023/08/23 05:42:09;;;;;;;12.57;7.35;;;23.70;1.00;;;;;;5074480;28;20303;-70
2023/08/23 05:44:58;;;;;;;10.10;7.50;;;23.60;1.00;;;;;;5094777;28;20219;-72
2023/08/23 05:47:47;;;;;;;12.18;7.55;;;23.10;1.00;;;;;;5065525;28;20615;-70
2023/08/23 05:50:37;;;;;;;10.30;7.57;;;22.60;99.90;;;;;;5072302;28;20219;-70
2023/08/23 05:53:26;;;;;;;10.85;7.63;;;22.20;1.00;;;;;;5073106;28;20242;-71
2023/08/23 05:56:16;;;;;;;10.18;8.40;;;21.90;1.00;;;;;;5078779;28;20242;-70
2023/08/23 05:59:05;;;;;;;12.63;7.57;;;21.70;80.70;;;;;;5075381;28;20591;-70
2023/08/23 06:01:54;;;;;;;14.70;8.25;;;21.60;1.00;;;;;;5091463;28;20253;-70
2023/08/23 06:04:43;;;;;;;10.13;7.78;;;21.60;1.00;;;;;;5073168;28;20230;-70
2023/08/23 06:07:32;;;;;;;12.20;9.02;;;21.50;1.00;;;;;;5081399;28;20227;-69
2023/08/23 06:10:21;;;;;;;13.52;7.53;;;21.60;1.00;;;;;;5075126;28;20219;-70
2023/08/23 06:13:11;;;;;;;31.35;10.27;;;21.60;99.90;;;;;;5095797;28;20694;-75
2023/08/23 06:16:00;;;;;;;13.63;6.72;;;21.70;1.00;;;;;;5072700;28;20265;-72
2023/08/23 06:18:49;;;;;;;9.48;7.13;;;21.50;99.90;;;;;;5064384;28;20233;-73
2023/08/23 06:21:38;;;;;;;14.05;8.07;;;21.60;1.00;;;;;;5091792;28;20310;-72
2023/08/23 06:24:29;;;;;;;11.75;7.15;;;21.60;1.00;;;;;;5089126;28;20310;-72
2023/08/23 06:27:19;;;;;;;12.13;6.85;;;21.60;1.00;;;;;;5083661;28;20679;-72
2023/08/23 06:30:09;;;;;;;9.65;6.85;;;21.70;1.00;;;;;;5078151;28;20251;-70
2023/08/23 06:32:58;;;;;;;8.57;6.03;;;21.80;22.60;;;;;;5074006;28;20540;-71
2023/08/23 06:35:47;;;;;;;13.60;6.18;;;21.70;99.90;;;;;;5078975;28;20812;-70
2023/08/23 06:38:36;;;;;;;10.95;6.05;;;21.80;1.00;;;;;;5082049;28;20223;-69
2023/08/23 06:41:28;;;;;;;12.00;6.10;;;22.10;1.00;;;;;;5066889;28;20236;-70
2023/08/23 06:44:17;;;;;;;10.43;5.63;;;22.00;1.00;;;;;;5079130;28;20216;-69
2023/08/23 06:47:07;;;;;;;7.90;5.32;;;22.00;61.90;;;;;;5083617;28;20226;-69
2023/08/23 06:49:56;;;;;;;10.60;6.03;;;22.00;99.90;;;;;;5077279;28;20223;-70
2023/08/23 06:52:45;;;;;;;8.90;5.25;;;22.10;1.00;;;;;;5077747;28;20238;-71
2023/08/23 06:55:39;;;;;;;11.90;5.28;;;22.20;1.00;;;;;;5077707;28;20262;-75
2023/08/23 06:58:28;;;;;;;9.40;5.22;;;22.30;99.90;;;;;;5066350;28;21153;-72
2023/08/23 07:01:17;;;;;;;8.50;4.80;;;22.30;1.00;;;;;;5105969;28;20235;-69
2023/08/23 07:04:08;;;;;;;13.80;5.53;;;22.30;1.00;;;;;;5071255;28;20310;-71
2023/08/23 07:06:57;;;;;;;10.10;5.07;;;22.50;1.00;;;;;;5086066;28;20215;-74
2023/08/23 07:09:46;;;;;;;8.77;4.90;;;22.60;1.00;;;;;;5096671;28;20727;-74
2023/08/23 07:12:35;;;;;;;6.70;4.88;;;22.70;1.00;;;;;;5089295;28;20301;-73
2023/08/23 07:15:24;;;;;;;22.55;18.13;;;22.80;99.90;;;;;;5083810;28;20218;-75
2023/08/23 07:18:13;;;;;;;8.73;5.00;;;22.90;99.90;;;;;;5096142;28;20215;-74
2023/08/23 07:21:04;;;;;;;11.15;4.60;;;22.90;99.90;;;;;;5098816;28;20364;-75
2023/08/23 07:23:53;;;;;;;9.70;4.53;;;23.00;99.90;;;;;;5093984;28;20226;-76
2023/08/23 07:26:42;;;;;;;10.85;4.45;;;23.10;99.90;;;;;;5076985;28;20251;-75
2023/08/23 07:29:31;;;;;;;10.57;4.70;;;23.20;99.90;;;;;;5079791;28;20230;-73
2023/08/23 07:32:20;;;;;;;7.05;4.30;;;23.30;99.90;;;;;;5082643;28;20257;-72
2023/08/23 07:35:10;;;;;;;10.50;5.15;;;23.40;99.90;;;;;;5090999;28;20306;-73
2023/08/23 07:38:00;;;;;;;11.82;4.90;;;23.60;99.90;;;;;;5067251;28;20350;-72
2023/08/23 07:40:48;;;;;;;9.95;4.15;;;23.60;99.90;;;;;;5058871;28;20590;-71
2023/08/23 07:43:38;;;;;;;7.88;4.30;;;23.70;99.90;;;;;;5073593;28;20612;-72
2023/08/23 07:46:27;;;;;;;10.27;4.30;;;23.80;99.90;;;;;;5081588;28;20218;-72
2023/08/23 07:49:17;;;;;;;10.27;4.68;;;24.00;99.90;;;;;;5097771;28;20223;-71
2023/08/23 07:52:06;;;;;;;11.98;5.43;;;24.10;99.90;;;;;;5071424;28;20694;-69
2023/08/23 07:54:57;;;;;;;11.25;4.03;;;24.30;99.90;;;;;;5093548;28;20227;-69
2023/08/23 07:57:45;;;;;;;10.00;3.25;;;24.60;99.90;;;;;;5083247;28;20234;-71
2023/08/23 08:00:35;;;;;;;13.32;2.85;;;24.70;33.20;;;;;;5077977;28;20231;-72
2023/08/23 08:03:24;;;;;;;7.90;2.63;;;24.90;57.90;;;;;;5093181;28;20219;-73
2023/08/23 08:06:15;;;;;;;4.50;2.20;;;25.40;58.00;;;;;;5092484;28;20271;-69
2023/08/23 08:09:04;;;;;;;5.10;2.20;;;25.40;4.70;;;;;;5074297;28;20234;-69
2023/08/23 08:11:55;;;;;;;4.95;1.80;;;25.50;1.00;;;;;;5083514;28;20219;-71
2023/08/23 08:14:43;;;;;;;5.05;2.25;;;25.40;1.00;;;;;;5098122;28;20571;-72
2023/08/23 08:17:33;;;;;;;2.90;1.80;;;25.50;1.00;;;;;;5078668;28;20231;-71
2023/08/23 08:20:23;;;;;;;7.22;2.78;;;25.50;1.00;;;;;;5070805;28;20283;-71
2023/08/23 08:23:12;;;;;;;6.35;2.67;;;26.10;1.00;;;;;;5094625;28;20379;-73
2023/08/23 08:26:01;;;;;;;8.57;3.03;;;26.30;1.00;;;;;;5073942;28;20728;-74
2023/08/23 08:28:51;;;;;;;8.70;2.53;;;26.90;1.00;;;;;;5078527;28;20227;-71
2023/08/23 08:31:40;;;;;;;5.78;2.33;;;27.60;1.00;;;;;;5080125;28;20226;-74
2023/08/23 08:34:29;;;;;;;5.18;2.15;;;27.50;1.00;;;;;;5092141;28;20326;-72
2023/08/23 08:37:21;;;;;;;4.70;2.80;;;28.10;1.00;;;;;;5074083;28;20532;-72
2023/08/23 08:40:11;;;;;;;6.57;2.67;;;27.80;1.00;;;;;;5095140;28;20299;-71
2023/08/23 08:43:00;;;;;;;5.43;2.80;;;27.40;1.00;;;;;;5078247;28;20216;-72
2023/08/23 08:45:51;;;;;;;7.68;2.92;;;28.30;1.00;;;;;;5080554;28;20243;-72
2023/08/23 08:48:40;;;;;;;5.00;2.30;;;29.10;1.00;;;;;;5086574;28;25636;-73
2023/08/23 08:51:29;;;;;;;7.05;2.72;;;29.50;1.00;;;;;;5076317;28;20446;-72
2023/08/23 08:54:19;;;;;;;5.28;2.42;;;29.70;1.00;;;;;;5095247;28;20279;-73
2023/08/23 08:57:10;;;;;;;7.95;2.25;;;29.80;1.00;;;;;;5082869;28;20245;-72
2023/08/23 09:00:00;;;;;;;3.92;2.10;;;30.00;1.00;;;;;;5076559;28;20218;-72
2023/08/23 09:02:54;;;;;;;4.45;2.30;;;28.80;1.00;;;;;;5094109;28;20218;-72
2023/08/23 09:05:43;;;;;;;4.18;2.38;;;29.30;1.00;;;;;;5096369;28;20268;-73
2023/08/23 09:08:33;;;;;;;6.20;2.10;;;28.60;1.00;;;;;;5078507;28;20359;-72
2023/08/23 09:11:22;;;;;;;5.88;2.40;;;29.10;1.00;;;;;;5080523;28;20226;-72
2023/08/23 09:14:15;;;;;;;2.80;2.15;;;29.20;1.00;;;;;;5101073;28;20219;-71
2023/08/23 09:17:05;;;;;;;5.70;2.50;;;30.30;1.00;;;;;;5072934;28;20223;-70
2023/08/23 09:19:56;;;;;;;5.10;2.25;;;29.80;1.00;;;;;;5092806;28;20310;-73
2023/08/23 09:22:50;;;;;;;3.47;1.98;;;30.40;1.00;;;;;;5094971;28;20263;-74
2023/08/23 09:25:39;;;;;;;5.97;2.88;;;30.80;1.00;;;;;;5096664;28;20278;-72
2023/08/23 09:28:29;;;;;;;6.28;2.67;;;31.90;1.00;;;;;;5094339;28;20245;-73
2023/08/23 09:31:18;;;;;;;4.70;2.47;;;32.30;1.00;;;;;;5095303;28;20720;-73
2023/08/23 09:34:13;;;;;;;4.63;3.30;;;32.50;1.00;;;;;;5096842;28;20762;-71
2023/08/23 09:37:09;;;;;;;8.43;4.82;;;33.20;1.00;;;;;;5073847;28;20227;-72
2023/08/23 09:39:58;;;;;;;3.95;2.47;;;33.10;1.00;;;;;;5091252;28;20237;-71
2023/08/23 09:42:48;;;;;;;6.38;2.00;;;33.30;1.00;;;;;;5075958;28;20379;-73
2023/08/23 09:45:37;;;;;;;4.32;2.25;;;32.00;1.00;;;;;;5092766;28;20283;-72
2023/08/23 09:48:30;;;;;;;3.30;2.03;;;32.50;1.00;;;;;;5082440;28;20237;-72
2023/08/23 09:51:22;;;;;;;6.63;2.10;;;33.40;1.00;;;;;;5089721;28;20233;-72
2023/08/23 09:54:17;;;;;;;7.70;2.50;;;34.10;1.00;;;;;;5082703;28;20225;-72
2023/08/23 09:57:27;;;;;;;4.85;3.10;;;35.40;1.00;;;;;;5072132;28;20326;-72
2023/08/23 10:00:17;;;;;;;7.18;2.92;;;36.20;1.00;;;;;;5079474;28;20211;-71
2023/08/23 10:03:08;;;;;;;5.03;2.45;;;36.00;1.00;;;;;;5074155;28;20259;-72
2023/08/23 10:05:57;;;;;;;3.53;1.95;;;36.20;1.00;;;;;;5078991;28;20224;-72
2023/08/23 10:08:46;;;;;;;3.88;2.58;;;36.30;1.00;;;;;;5090103;28;20219;-72
2023/08/23 10:11:38;;;;;;;5.95;2.42;;;36.70;1.00;;;;;;5078846;28;20226;-72
2023/08/23 10:14:45;;;;;;;4.82;2.13;;;36.20;1.00;;;;;;5092879;28;20278;-70
2023/08/23 10:17:36;;;;;;;8.02;2.50;;;35.40;1.00;;;;;;5092110;28;20779;-73
2023/08/23 10:20:26;;;;;;;7.70;3.20;;;35.50;1.00;;;;;;5077898;28;20226;-74
2023/08/23 10:23:18;;;;;;;7.78;2.63;;;34.30;1.00;;;;;;5097450;28;20325;-73
2023/08/23 10:26:18;;;;;;;12.05;7.13;;;32.00;1.00;;;;;;5102500;28;20221;-72
2023/08/23 10:29:10;;;;;;;4.70;3.13;;;31.80;1.00;;;;;;5073313;28;20385;-75
2023/08/23 10:31:59;;;;;;;5.05;2.15;;;33.30;1.00;;;;;;5083115;28;20320;-71
2023/08/23 10:34:48;;;;;;;4.28;2.40;;;34.40;1.00;;;;;;5102552;28;20229;-75
2023/08/23 10:37:37;;;;;;;4.40;3.38;;;33.80;1.00;;;;;;5100490;27;20218;-73
2023/08/23 10:40:30;;;;;;;6.53;3.30;;;35.80;1.00;;;;;;5080903;28;20226;-73
2023/08/23 10:43:21;;;;;;;3.28;2.10;;;37.40;1.00;;;;;;5086607;28;20271;-73
2023/08/23 10:46:11;;;;;;;5.20;2.05;;;37.40;1.00;;;;;;5078379;28;20219;-75
2023/08/23 10:49:02;;;;;;;5.32;1.85;;;38.60;1.00;;;;;;5070590;28;20230;-75
2023/08/23 10:51:52;;;;;;;3.97;1.98;;;37.20;1.00;;;;;;5076710;28;20219;-74
2023/08/23 10:54:42;;;;;;;7.53;2.30;;;38.40;1.00;;;;;;5080818;28;20230;-71
2023/08/23 10:57:32;;;;;;;4.25;1.83;;;39.70;1.00;;;;;;5081789;28;20219;-70
2023/08/23 11:00:21;;;;;;;5.60;1.90;;;40.30;1.00;;;;;;5074336;28;20295;-77
2023/08/23 11:03:12;;;;;;;4.78;2.28;;;40.70;1.00;;;;;;5078306;28;20224;-77
2023/08/23 11:06:02;;;;;;;6.72;2.90;;;40.60;1.00;;;;;;5082081;28;20227;-77
2023/08/23 11:08:52;;;;;;;6.28;3.90;;;40.80;1.00;;;;;;5081755;28;20226;-74
2023/08/23 11:11:41;;;;;;;3.38;1.98;;;39.20;1.00;;;;;;5097064;28;20238;-75
2023/08/23 11:14:30;;;;;;;4.03;2.15;;;40.40;1.00;;;;;;5092071;28;20273;-75
2023/08/23 11:17:20;;;;;;;3.90;2.00;;;40.00;1.00;;;;;;5079121;28;20226;-76
2023/08/23 11:20:13;;;;;;;4.10;1.92;;;40.40;1.00;;;;;;5072083;28;20218;-76
2023/08/23 11:23:02;;;;;;;2.38;1.77;;;40.60;1.00;;;;;;5082889;28;20222;-75
2023/08/23 11:25:55;;;;;;;3.22;1.80;;;37.20;1.00;;;;;;5080450;28;20231;-78
2023/08/23 11:28:44;;;;;;;2.97;2.03;;;38.50;1.00;;;;;;5074560;28;20239;-78
2023/08/23 11:31:34;;;;;;;2.78;1.80;;;40.40;1.00;;;;;;5091127;28;20219;-76
2023/08/23 11:34:23;;;;;;;2.45;2.13;;;42.10;1.00;;;;;;5077023;28;20318;-75
2023/08/23 11:37:16;;;;;;;1.77;1.50;;;43.10;1.00;;;;;;5056151;28;20313;-77
2023/08/23 11:40:10;;;;;;;3.65;2.00;;;44.00;1.00;;;;;;5058965;28;20768;-76
2023/08/23 11:43:00;;;;;;;3.75;1.95;;;43.90;1.00;;;;;;5077280;28;20276;-76
2023/08/23 11:45:53;;;;;;;3.72;1.80;;;44.70;1.00;;;;;;5081492;28;20315;-75
2023/08/23 11:48:42;;;;;;;6.63;3.45;;;44.70;1.00;;;;;;5087456;28;20226;-75
2023/08/23 11:51:39;;;;;;;3.13;2.83;;;44.90;1.00;;;;;;5090751;28;20780;-75
2023/08/23 11:54:30;;;;;;;4.25;1.85;;;45.60;1.00;;;;;;5100241;28;20223;-76
2023/08/23 11:57:19;;;;;;;2.25;1.80;;;45.30;1.00;;;;;;5097952;28;20223;-75
2023/08/23 12:00:09;;;;;;;3.33;2.00;;;43.40;1.00;;;;;;5064636;28;20607;-76
2023/08/23 12:03:00;;;;;;;4.10;1.73;;;41.90;1.00;;;;;;5078213;28;20216;-75
2023/08/23 12:05:49;;;;;;;5.50;2.00;;;41.40;1.00;;;;;;5084908;28;20265;-75
2023/08/23 12:08:38;;;;;;;5.20;2.53;;;41.50;1.00;;;;;;5088128;28;20755;-76
2023/08/23 12:11:28;;;;;;;4.05;2.20;;;41.20;1.00;;;;;;5066730;28;20674;-76
2023/08/23 12:14:17;;;;;;;4.75;2.13;;;37.00;1.00;;;;;;5073546;28;20222;-76
2023/08/23 12:17:06;;;;;;;4.28;1.60;;;35.00;1.00;;;;;;5086185;28;20227;-76
2023/08/23 12:19:55;;;;;;;6.35;1.70;;;33.60;1.00;;;;;;5091768;28;20218;-75
2023/08/23 12:22:46;;;;;;;4.20;1.75;;;32.60;1.00;;;;;;5065076;28;20279;-75
2023/08/23 12:25:35;;;;;;;3.30;1.77;;;32.00;1.00;;;;;;5081854;28;20230;-76
2023/08/23 12:28:25;;;;;;;3.15;1.83;;;31.30;1.00;;;;;;5095409;28;20214;-76
2023/08/23 12:31:16;;;;;;;4.22;1.88;;;30.80;1.00;;;;;;5082645;28;20222;-75
2023/08/23 12:34:05;;;;;;;4.85;1.98;;;30.40;1.00;;;;;;5093354;28;20247;-75
2023/08/23 12:36:53;;;;;;;3.60;2.08;;;29.80;1.00;;;;;;5094958;28;20242;-75
2023/08/23 12:39:42;;;;;;;2.53;1.92;;;29.60;1.00;;;;;;5100433;28;20304;-77
2023/08/23 12:42:31;;;;;;;6.07;2.72;;;29.40;1.00;;;;;;5087062;28;20787;-74
2023/08/23 12:45:22;;;;;;;7.05;2.28;;;29.30;1.00;;;;;;5091020;28;20218;-75
2023/08/23 12:48:11;;;;;;;6.40;3.03;;;28.90;1.00;;;;;;5089007;28;20222;-76
2023/08/23 12:51:00;;;;;;;4.63;2.47;;;28.70;1.00;;;;;;5078938;28;20234;-75
2023/08/23 12:53:49;;;;;;;2.75;2.00;;;28.50;1.00;;;;;;5099241;28;20245;-76
2023/08/23 12:56:39;;;;;;;4.35;2.42;;;28.00;1.00;;;;;;5080686;28;20223;-75
2023/08/23 12:59:28;;;;;;;5.90;4.50;;;28.00;1.00;;;;;;5073822;28;20609;-75
2023/08/23 13:02:18;;;;;;;11.32;8.73;;;28.00;1.00;;;;;;5082257;28;20294;-74
2023/08/23 13:05:08;;;;;;;18.52;8.07;;;28.10;1.00;;;;;;5055242;28;20647;-75
2023/08/23 13:07:57;;;;;;;5.60;2.00;;;28.30;1.00;;;;;;5085598;28;20268;-75
2023/08/23 13:10:46;;;;;;;5.70;3.13;;;28.30;1.00;;;;;;5072424;28;20234;-75
2023/08/23 13:13:36;;;;;;;5.57;2.17;;;28.50;1.00;;;;;;5077620;28;20293;-75
2023/08/23 13:16:28;;;;;;;5.88;2.75;;;28.40;1.00;;;;;;5093080;28;20235;-74
2023/08/23 13:19:18;;;;;;;4.25;2.47;;;28.30;1.00;;;;;;5087632;28;20215;-75
2023/08/23 13:22:07;;;;;;;3.42;2.30;;;28.30;1.00;;;;;;5080353;28;20725;-75
2023/08/23 13:24:56;;;;;;;2.85;2.00;;;28.10;1.00;;;;;;5076622;28;20233;-75
2023/08/23 13:27:44;;;;;;;5.20;2.20;;;28.00;1.00;;;;;;5062134;28;20368;-73
2023/08/23 13:30:34;;;;;;;4.82;2.10;;;27.90;1.00;;;;;;5075402;28;20247;-75
2023/08/23 13:33:23;;;;;;;5.63;2.38;;;27.80;1.00;;;;;;5077940;28;20235;-75
2023/08/23 13:36:13;;;;;;;5.00;2.20;;;28.00;1.00;;;;;;5081451;28;20693;-74
2023/08/23 13:39:02;;;;;;;4.65;1.80;;;28.00;1.00;;;;;;5096147;28;20214;-74
2023/08/23 13:41:51;;;;;;;5.68;2.40;;;28.00;1.00;;;;;;5083751;28;20259;-75
2023/08/23 13:44:40;;;;;;;8.20;2.47;;;27.80;1.00;;;;;;5081079;28;20222;-74
2023/08/23 13:47:29;;;;;;;4.60;2.20;;;27.60;1.00;;;;;;5084486;28;20226;-74
2023/08/23 13:50:18;;;;;;;5.57;2.30;;;27.60;1.00;;;;;;5068953;28;20226;-73
2023/08/23 13:53:09;;;;;;;7.57;2.30;;;27.60;1.00;;;;;;5075022;28;20313;-73
2023/08/23 13:55:58;;;;;;;3.05;2.05;;;27.50;1.00;;;;;;5081677;28;20234;-74
2023/08/23 13:58:46;;;;;;;3.15;1.73;;;27.40;1.00;;;;;;5079300;28;20218;-74
2023/08/23 14:01:35;;;;;;;5.38;2.10;;;27.30;1.00;;;;;;5100403;28;20214;-75
2023/08/23 14:04:25;;;;;;;4.30;2.17;;;27.50;1.00;;;;;;5088288;28;20724;-72
2023/08/23 14:07:15;;;;;;;5.28;2.00;;;27.60;1.00;;;;;;5080190;28;21023;-72
2023/08/23 14:10:07;;;;;;;4.68;1.70;;;27.60;1.00;;;;;;5096021;28;20681;-71
2023/08/23 14:12:55;;;;;;;4.78;1.73;;;27.30;1.00;;;;;;5103008;28;20214;-73
2023/08/23 14:15:45;;;;;;;7.90;2.03;;;27.30;1.00;;;;;;5100365;28;20234;-72
2023/08/23 14:18:35;;;;;;;4.85;1.63;;;27.00;1.00;;;;;;5094920;28;20234;-70
2023/08/23 14:21:24;;;;;;;4.57;2.08;;;26.70;1.00;;;;;;5094404;28;20283;-72
2023/08/23 14:24:15;;;;;;;2.95;1.77;;;26.90;1.00;;;;;;5088536;28;20229;-73
2023/08/23 14:27:06;;;;;;;5.47;1.70;;;27.00;1.00;;;;;;5094779;28;20219;-72
2023/08/23 14:29:55;;;;;;;4.72;2.10;;;26.90;1.00;;;;;;5057991;28;20219;-73
2023/08/23 14:32:51;;;;;;;8.38;1.90;;;26.80;1.00;;;;;;5073876;28;20912;-72
2023/08/23 14:35:41;;;;;;;6.18;1.80;;;26.90;1.00;;;;;;5073965;28;20773;-73
2023/08/23 14:38:30;;;;;;;9.23;1.48;;;27.00;1.00;;;;;;5072620;28;20314;-72
2023/08/23 14:41:20;;;;;;;5.28;1.52;;;26.80;1.00;;;;;;5072894;28;20219;-73
2023/08/23 14:44:10;;;;;;;4.30;1.90;;;26.60;1.00;;;;;;5072136;28;20226;-73
2023/08/23 14:46:58;;;;;;;4.65;1.73;;;26.60;1.00;;;;;;5064482;28;20227;-74
2023/08/23 14:49:47;;;;;;;7.25;1.52;;;26.50;1.00;;;;;;5076191;28;20393;-72